createdAt,value
2022-09-14T00:00:43.200Z,23.8
2022-09-14T00:03:12.298Z,22.8
2022-09-14T00:05:28.866Z,23.5
2022-09-14T00:07:45.330Z,23.1
2022-09-14T00:10:01.900Z,21.6
2022-09-14T00:12:18.539Z,23.4
2022-09-14T00:14:34.443Z,23.3
2022-09-14T00:16:50.422Z,23.8
2022-09-14T00:19:06.883Z,23.6
2022-09-14T00:21:23.667Z,23.2
2022-09-14T00:23:40.413Z,23.5
2022-09-14T00:25:56.938Z,24.1
2022-09-14T00:28:13.204Z,23.1
2022-09-14T00:30:30.259Z,23.1
2022-09-14T00:32:46.928Z,23.4
2022-09-14T00:35:03.922Z,23.9
2022-09-14T00:37:19.537Z,23.1
2022-09-14T00:39:34.518Z,23.8
2022-09-14T00:41:50.507Z,24
2022-09-14T00:44:06.550Z,23.5
2022-09-14T00:46:22.455Z,23.9
2022-09-14T00:48:39.374Z,23.4
2022-09-14T00:50:56.191Z,23.4
2022-09-14T00:53:12.918Z,23.4
2022-09-14T00:55:28.961Z,23.6
2022-09-14T00:57:44.676Z,23.8
2022-09-14T01:00:01.690Z,23.4
2022-09-14T01:02:17.988Z,23.2
2022-09-14T01:04:33.416Z,23.9
2022-09-14T01:06:50.354Z,23.4
2022-09-14T01:09:07.050Z,23.3
2022-09-14T01:11:23.888Z,23.1
2022-09-14T01:13:40.717Z,23.2
2022-09-14T01:15:56.803Z,23.2
2022-09-14T01:18:12.533Z,23.9
2022-09-14T01:20:29.373Z,23.4
2022-09-14T01:22:46.132Z,23.6
2022-09-14T01:25:02.979Z,23.3
2022-09-14T01:27:19.709Z,22.8
2022-09-14T01:29:36.459Z,22.5
2022-09-14T01:31:53.393Z,22.8
2022-09-14T01:34:10.037Z,23.1
2022-09-14T01:36:26.041Z,23.4
2022-09-14T01:38:41.972Z,23.8
2022-09-14T01:40:58.852Z,23.6
2022-09-14T01:43:15.793Z,23.4
2022-09-14T01:45:32.180Z,23.4
2022-09-14T01:47:49.607Z,23.1
2022-09-14T01:50:06.294Z,23.6
2022-09-14T01:52:23.255Z,23.4
2022-09-14T01:54:39.846Z,22.7
2022-09-14T01:56:56.770Z,23.4
2022-09-14T01:59:13.672Z,23.2
2022-09-14T02:01:30.416Z,23.4
2022-09-14T02:03:47.193Z,23.5
2022-09-14T02:06:03.999Z,23.2
2022-09-14T02:08:05.946Z,22.6
2022-09-14T02:08:20.799Z,23.1
2022-09-14T02:10:36.960Z,23.4
2022-09-14T02:12:52.917Z,23.6
2022-09-14T02:15:10.011Z,23.4
2022-09-14T02:17:26.742Z,23.5
2022-09-14T02:19:43.619Z,23.3
2022-09-14T02:22:00.561Z,23.4
2022-09-14T02:24:17.397Z,23.4
2022-09-14T02:26:34.290Z,23.3
2022-09-14T02:28:51.356Z,23.1
2022-09-14T02:31:08.181Z,23.3
2022-09-14T02:33:25.242Z,23.3
2022-09-14T02:35:41.778Z,23.3
2022-09-14T02:37:58.600Z,23.4
2022-09-14T02:40:15.575Z,23.3
2022-09-14T02:42:31.747Z,23.4
2022-09-14T02:44:47.508Z,23.6
2022-09-14T02:47:03.665Z,23.8
2022-09-14T02:49:20.598Z,23.4
2022-09-14T02:51:37.539Z,23.6
2022-09-14T02:53:53.931Z,23.4
2022-09-14T02:56:10.061Z,24
2022-09-14T02:58:27.043Z,23.5
2022-09-14T03:01:23.438Z,23.4
2022-09-14T03:03:40.358Z,23.5
2022-09-14T03:05:57.520Z,23.5
2022-09-14T03:08:14.404Z,23.5
2022-09-14T03:10:31.391Z,23.4
2022-09-14T03:12:48.352Z,23.4
2022-09-14T03:15:04.702Z,23.6
2022-09-14T03:17:20.740Z,23.8
2022-09-14T03:19:37.788Z,23.5
2022-09-14T03:21:54.722Z,23.4
2022-09-14T03:24:11.980Z,23.3
2022-09-14T03:26:28.164Z,23.4
2022-09-14T03:28:44.019Z,23.5
2022-09-14T03:31:00.356Z,23.5
2022-09-14T03:33:17.400Z,23.4
2022-09-14T03:35:34.383Z,23.6
2022-09-14T03:37:51.312Z,23.5
2022-09-14T03:40:08.400Z,23.4
2022-09-14T03:42:24.730Z,23.3
2022-09-14T03:44:41.575Z,23.8
2022-09-14T03:46:57.458Z,23.6
2022-09-14T03:49:14.996Z,23.6
2022-09-14T03:51:32.153Z,23.4
2022-09-14T03:53:49.174Z,23.4
2022-09-14T03:56:06.005Z,23.3
2022-09-14T03:58:22.514Z,23.4
2022-09-14T04:00:38.719Z,23.9
2022-09-14T04:02:56.021Z,23.4
2022-09-14T04:05:12.733Z,23.3
2022-09-14T04:07:29.325Z,23.4
2022-09-14T04:09:45.766Z,23.7
2022-09-14T04:12:02.512Z,23.4
2022-09-14T04:14:19.486Z,23.4
2022-09-14T04:16:36.732Z,23.3
2022-09-14T04:18:53.657Z,23.3
2022-09-14T04:21:10.665Z,23.4
2022-09-14T04:23:27.273Z,23.4
2022-09-14T04:25:59.041Z,23.5
2022-09-14T04:28:22.556Z,23.2
2022-09-14T04:30:39.479Z,23.4
2022-09-14T04:32:56.586Z,23.4
2022-09-14T04:35:13.825Z,23.5
2022-09-14T04:37:30.566Z,23.6
2022-09-14T04:39:47.767Z,23.4
2022-09-14T04:42:04.240Z,23.4
2022-09-14T04:44:20.518Z,23.8
2022-09-14T04:46:38.494Z,23.9
2022-09-14T04:48:53.818Z,23.4
2022-09-14T04:51:10.774Z,23.4
2022-09-14T04:53:27.889Z,23.4
2022-09-14T04:55:44.465Z,23.5
2022-09-14T04:58:00.892Z,23.7
2022-09-14T05:00:17.656Z,23.6
2022-09-14T05:02:34.350Z,23.3
2022-09-14T05:04:51.524Z,23.6
2022-09-14T05:06:53.387Z,23.6
2022-09-14T05:07:08.717Z,23.2
2022-09-14T05:09:25.757Z,23.6
2022-09-14T05:11:42.912Z,23.7
2022-09-14T05:13:59.971Z,23.1
2022-09-14T05:16:17.158Z,23.4
2022-09-14T05:18:34.019Z,23.4
2022-09-14T05:20:51.332Z,23.4
2022-09-14T05:23:08.205Z,23.5
2022-09-14T05:25:25.374Z,23.4
2022-09-14T05:27:42.351Z,23.4
2022-09-14T05:29:58.888Z,23.4
2022-09-14T05:32:15.053Z,23.9
2022-09-14T05:34:31.339Z,23.4
2022-09-14T05:36:48.046Z,23.4
2022-09-14T05:39:04.819Z,23.4
2022-09-14T05:41:21.440Z,23.3
2022-09-14T05:43:38.609Z,23.3
2022-09-14T05:45:55.776Z,23.3
2022-09-14T05:48:12.805Z,23.3
2022-09-14T05:50:29.443Z,23.4
2022-09-14T05:52:45.883Z,23.8
2022-09-14T05:55:02.536Z,23.4
2022-09-14T05:57:18.702Z,23.6
2022-09-14T05:59:35.714Z,23.3
2022-09-14T06:01:51.924Z,24.1
2022-09-14T06:04:08.975Z,23.4
2022-09-14T06:06:26.346Z,23.6
2022-09-14T06:08:51.964Z,23.5
2022-09-14T06:11:08.969Z,23.3
2022-09-14T06:13:26.223Z,23.4
2022-09-14T06:15:43.356Z,23.1
2022-09-14T06:18:00.812Z,23.3
2022-09-14T06:20:17.752Z,23.2
2022-09-14T06:22:34.801Z,23.2
2022-09-14T06:24:52.131Z,23.4
2022-09-14T06:27:09.027Z,23.3
2022-09-14T06:29:26.367Z,23.1
2022-09-14T06:31:43.325Z,23.1
2022-09-14T06:34:00.491Z,23.2
2022-09-14T06:36:17.458Z,23.2
2022-09-14T06:38:34.568Z,23.2
2022-09-14T06:40:51.548Z,23.2
2022-09-14T06:43:08.467Z,23.2
2022-09-14T06:45:25.693Z,23.3
2022-09-14T06:47:42.654Z,23.1
2022-09-14T06:50:00.182Z,23.1
2022-09-14T06:52:17.337Z,23.1
2022-09-14T06:54:34.227Z,23.3
2022-09-14T06:56:51.115Z,23.3
2022-09-14T06:59:08.235Z,22.9
2022-09-14T07:01:25.056Z,23
2022-09-14T07:03:41.523Z,22.8
2022-09-14T07:05:57.153Z,23.3
2022-09-14T07:08:13.714Z,23.8
2022-09-14T07:10:30.873Z,23.3
2022-09-14T07:12:47.911Z,23.3
2022-09-14T07:15:05.135Z,23.1
2022-09-14T07:17:21.369Z,23.1
2022-09-14T07:19:37.771Z,23.6
2022-09-14T07:21:54.164Z,23.1
2022-09-14T07:24:10.182Z,23.9
2022-09-14T07:26:26.222Z,23.8
2022-09-14T07:28:42.777Z,23.5
2022-09-14T07:31:00.174Z,23.1
2022-09-14T07:33:16.522Z,23.1
2022-09-14T07:35:33.545Z,23.3
2022-09-14T07:37:49.864Z,23.4
2022-09-14T07:40:16.726Z,23.1
2022-09-14T07:42:17.963Z,23.5
2022-09-14T07:42:33.126Z,23.1
2022-09-14T07:44:49.658Z,23.2
2022-09-14T07:47:06.183Z,23
2022-09-14T07:49:22.660Z,23
2022-09-14T07:51:39.302Z,23.1
2022-09-14T07:53:55.663Z,23.3
2022-09-14T07:56:12.212Z,23.1
2022-09-14T07:58:40.347Z,23.1
2022-09-14T08:01:09.159Z,23.6
2022-09-14T08:03:25.943Z,23.4
2022-09-14T08:05:41.292Z,23.5
2022-09-14T08:07:56.255Z,23.6
2022-09-14T08:10:11.671Z,23.6
2022-09-14T08:12:26.976Z,23.6
2022-09-14T08:14:42.373Z,23.7
2022-09-14T08:16:57.663Z,23.4
2022-09-14T08:19:13.075Z,23.6
2022-09-14T08:21:28.302Z,23.9
2022-09-14T08:23:43.688Z,23.6
2022-09-14T08:25:58.958Z,23.8
2022-09-14T08:28:14.097Z,23.8
2022-09-14T08:30:29.498Z,23.7
2022-09-14T08:32:44.703Z,23.6
2022-09-14T08:35:00.826Z,23.6
2022-09-14T08:37:29.643Z,23.6
2022-09-14T08:39:48.361Z,23.8
2022-09-14T08:42:00.329Z,23.8
2022-09-14T08:44:15.519Z,23.8
2022-09-14T08:46:30.882Z,23.8
2022-09-14T08:48:46.123Z,23.9
2022-09-14T08:51:01.625Z,23.7
2022-09-14T08:53:16.896Z,23.9
2022-09-14T08:55:32.082Z,23.7
2022-09-14T08:57:47.176Z,23.8
2022-09-14T09:03:38.499Z,23.8
2022-09-14T09:05:53.272Z,24
2022-09-14T09:08:08.369Z,24.1
2022-09-14T09:10:23.555Z,23.9
2022-09-14T09:12:38.505Z,23.9
2022-09-14T09:14:53.577Z,23.9
2022-09-14T09:17:08.875Z,23.9
2022-09-14T09:19:26.770Z,23.8
2022-09-14T09:21:38.591Z,23.9
2022-09-14T09:23:53.497Z,23.9
2022-09-14T09:26:08.539Z,23.9
2022-09-14T09:28:23.614Z,23.9
2022-09-14T09:30:38.490Z,23.9
2022-09-14T09:32:53.437Z,24
2022-09-14T09:35:08.397Z,23.8
2022-09-14T09:37:23.468Z,23.9
2022-09-14T09:39:38.717Z,23.9
2022-09-14T09:41:53.604Z,23.9
2022-09-14T09:44:18.631Z,23.9
2022-09-14T09:46:33.618Z,23.9
2022-09-14T09:48:48.775Z,23.9
2022-09-14T09:51:03.798Z,23.9
2022-09-14T09:53:18.770Z,24
2022-09-14T09:55:33.791Z,24
2022-09-14T09:57:48.849Z,24
2022-09-14T10:00:03.710Z,24
2022-09-14T10:02:18.659Z,24.1
2022-09-14T10:04:33.420Z,24
2022-09-14T10:06:48.463Z,24.2
2022-09-14T10:09:03.327Z,24.1
2022-09-14T10:11:18.244Z,24.1
2022-09-14T10:13:36.576Z,24.2
2022-09-14T10:15:48.093Z,24.1
2022-09-14T10:18:02.993Z,24.1
2022-09-14T10:20:18.103Z,24.1
2022-09-14T10:22:32.833Z,24.3
2022-09-14T10:24:47.602Z,24.1
2022-09-14T10:27:02.485Z,24.2
2022-09-14T10:29:17.421Z,24.2
2022-09-14T10:31:32.525Z,24.3
2022-09-14T10:33:47.363Z,24.1
2022-09-14T10:36:02.303Z,24.1
2022-09-14T10:38:17.136Z,24.3
2022-09-14T10:40:17.337Z,24.3
2022-09-14T10:40:32.095Z,24.2
2022-09-14T10:42:47.048Z,24.2
2022-09-14T10:45:01.719Z,24.1
2022-09-14T10:47:16.662Z,24.2
2022-09-14T10:49:31.624Z,24.2
2022-09-14T10:51:46.550Z,24.1
2022-09-14T10:54:01.328Z,24.1
2022-09-14T10:56:16.609Z,24.3
2022-09-14T10:58:31.613Z,24.1
2022-09-14T11:00:45.914Z,24.2
2022-09-14T11:03:01.047Z,24.2
2022-09-14T11:05:15.669Z,24.1
2022-09-14T11:07:30.420Z,24.3
2022-09-14T11:09:45.302Z,24.1
2022-09-14T11:12:00.106Z,24.1
2022-09-14T11:14:14.984Z,24.3
2022-09-14T11:16:29.991Z,24.3
2022-09-14T11:18:44.669Z,24.3
2022-09-14T11:20:59.587Z,24.3
2022-09-14T11:23:14.406Z,24.3
2022-09-14T11:25:28.733Z,24.2
2022-09-14T11:27:44.100Z,24.4
2022-09-14T11:29:58.952Z,24.4
2022-09-14T11:32:22.552Z,24.4
2022-09-14T11:34:37.354Z,24.3
2022-09-14T11:36:51.597Z,24.4
2022-09-14T11:39:07.205Z,24.3
2022-09-14T11:41:21.895Z,24.4
2022-09-14T11:43:36.161Z,24.3
2022-09-14T11:45:51.551Z,24.4
2022-09-14T11:48:09.487Z,24.2
2022-09-14T11:50:35.618Z,24.3
2022-09-14T11:52:50.540Z,24.3
2022-09-14T11:55:05.389Z,24.5
2022-09-14T11:57:20.183Z,24.2
2022-09-14T11:59:35.074Z,24.2
2022-09-14T12:01:49.834Z,24.3
2022-09-14T12:04:04.820Z,24.1
2022-09-14T12:06:19.576Z,24.4
2022-09-14T12:08:34.439Z,24.3
2022-09-14T12:10:49.144Z,24.3
2022-09-14T12:13:04.100Z,24.3
2022-09-14T12:15:18.919Z,24.4
2022-09-14T12:17:43.371Z,24.3
2022-09-14T12:19:57.948Z,24.2
2022-09-14T12:22:12.713Z,24.3
2022-09-14T12:24:27.605Z,24.2
2022-09-14T12:26:42.544Z,24.3
2022-09-14T12:28:57.333Z,24.3
2022-09-14T12:31:11.674Z,24.3
2022-09-14T12:33:27.006Z,24.3
2022-09-14T12:35:41.895Z,24.1
2022-09-14T12:37:56.791Z,24.2
2022-09-14T12:40:11.589Z,24.3
2022-09-14T12:42:26.288Z,24.4
2022-09-14T12:44:40.770Z,24.3
2022-09-14T12:46:56.136Z,24.3
2022-09-14T12:49:10.824Z,24.2
2022-09-14T12:51:25.723Z,24.2
2022-09-14T12:53:40.606Z,24.1
2022-09-14T12:55:55.359Z,24.3
2022-09-14T12:58:10.282Z,24.4
2022-09-14T13:00:25.319Z,24.1
2022-09-14T13:02:40.083Z,24.2
2022-09-14T13:04:54.811Z,24.3
2022-09-14T13:07:09.577Z,24.4
2022-09-14T13:09:24.631Z,24.1
2022-09-14T13:11:39.431Z,24.3
2022-09-14T13:13:54.238Z,24.1
2022-09-14T13:16:09.195Z,24.3
2022-09-14T13:18:23.870Z,24.4
2022-09-14T13:20:38.795Z,24.4
2022-09-14T13:22:53.436Z,24.3
2022-09-14T13:25:08.573Z,24.3
2022-09-14T13:27:23.275Z,24.4
2022-09-14T13:29:37.976Z,24.2
2022-09-14T13:31:52.953Z,24.4
2022-09-14T13:34:07.830Z,24.4
2022-09-14T13:36:22.907Z,24.2
2022-09-14T13:38:37.431Z,24.3
2022-09-14T13:40:52.420Z,24.1
2022-09-14T13:43:07.158Z,24.3
2022-09-14T13:45:21.960Z,24.4
2022-09-14T13:47:37.010Z,24.2
2022-09-14T13:49:51.708Z,24.3
2022-09-14T13:52:06.434Z,24.3
2022-09-14T13:54:34.042Z,24.2
2022-09-14T13:56:48.977Z,24.4
2022-09-14T13:59:03.727Z,24.4
2022-09-14T14:01:18.563Z,24.2
2022-09-14T14:03:33.456Z,24.3
2022-09-14T14:05:48.252Z,24.2
2022-09-14T14:08:03.127Z,24.3
2022-09-14T14:10:20.529Z,24.1
2022-09-14T14:12:33.404Z,24.6
2022-09-14T14:14:47.999Z,24.3
2022-09-14T14:17:03.040Z,24.3
2022-09-14T14:19:17.831Z,24.3
2022-09-14T14:21:33.006Z,24.3
2022-09-14T14:24:09.473Z,24.4
2022-09-14T14:26:29.407Z,24.1
2022-09-14T14:28:44.298Z,24.2
2022-09-14T14:30:59.027Z,24.3
2022-09-14T14:33:14.850Z,24.2
2022-09-14T14:35:28.706Z,24.4
2022-09-14T14:37:43.543Z,24.3
2022-09-14T14:39:58.520Z,24.1
2022-09-14T14:42:13.357Z,24.1
2022-09-14T14:44:28.235Z,24.4
2022-09-14T14:46:42.999Z,24.2
2022-09-14T14:48:57.870Z,24.2
2022-09-14T14:51:12.646Z,24.2
2022-09-14T14:53:27.496Z,24.4
2022-09-14T14:55:42.270Z,24.4
2022-09-14T14:57:57.208Z,24.2
2022-09-14T15:01:23.092Z,24.4
2022-09-14T15:03:37.981Z,24.3
2022-09-14T15:05:52.711Z,24.3
2022-09-14T15:08:07.628Z,24.3
2022-09-14T15:10:22.369Z,24.3
2022-09-14T15:12:37.136Z,24.1
2022-09-14T15:14:52.055Z,24.4
2022-09-14T15:17:06.955Z,24.4
2022-09-14T15:19:21.732Z,24.4
2022-09-14T15:21:36.670Z,24.3
2022-09-14T15:23:51.428Z,24.2
2022-09-14T15:26:06.283Z,24.3
2022-09-14T15:28:21.235Z,24.1
2022-09-14T15:30:35.899Z,24.4
2022-09-14T15:32:50.757Z,24.3
2022-09-14T15:35:05.915Z,24.2
2022-09-14T15:37:20.454Z,24.4
2022-09-14T15:39:35.398Z,24.3
2022-09-14T15:41:50.252Z,24.3
2022-09-14T15:44:05.050Z,24.2
2022-09-14T15:46:19.905Z,24.1
2022-09-14T15:48:34.912Z,24.4
2022-09-14T15:50:49.579Z,24.3
2022-09-14T15:53:04.344Z,24.3
2022-09-14T15:55:18.658Z,24.2
2022-09-14T15:57:34.188Z,24.4
2022-09-14T15:59:48.906Z,24.4
2022-09-14T16:02:03.933Z,24.3
2022-09-14T16:04:18.562Z,24.6
2022-09-14T16:06:33.526Z,24.3
2022-09-14T16:08:48.740Z,24.4
2022-09-14T16:11:03.607Z,23.9
2022-09-14T16:13:19.105Z,23.8
2022-09-14T16:15:34.002Z,24.1
2022-09-14T16:17:48.983Z,24.2
2022-09-14T16:20:03.702Z,24.1
2022-09-14T16:22:18.501Z,24.2
2022-09-14T16:24:33.366Z,24.1
2022-09-14T16:26:48.598Z,24.4
2022-09-14T16:29:04.183Z,23.9
2022-09-14T16:31:19.432Z,24.4
2022-09-14T16:33:34.447Z,24.3
2022-09-14T16:35:49.574Z,24.1
2022-09-14T16:38:04.479Z,23.6
2022-09-14T16:40:04.456Z,23.9
2022-09-14T16:40:19.503Z,24.3
2022-09-14T16:42:34.495Z,23.4
2022-09-14T16:44:49.443Z,23.8
2022-09-14T16:47:04.425Z,24.1
2022-09-14T16:49:22.376Z,23.1
2022-09-14T16:51:35.413Z,24.9
2022-09-14T16:53:50.535Z,24.9
2022-09-14T16:56:06.087Z,24.9
2022-09-14T16:58:22.014Z,24.6
2022-09-14T17:00:38.055Z,24.9
2022-09-14T17:02:52.049Z,24.3
2022-09-14T17:05:07.741Z,24.8
2022-09-14T17:07:23.346Z,24.8
2022-09-14T17:09:38.778Z,24.7
2022-09-14T17:11:55.217Z,24.9
2022-09-14T17:14:09.635Z,25.1
2022-09-14T17:16:25.119Z,24
2022-09-14T17:18:40.723Z,24.6
2022-09-14T17:20:56.257Z,24.6
2022-09-14T17:23:11.124Z,23.9
2022-09-14T17:25:26.675Z,24.1
2022-09-14T17:27:42.435Z,24.1
2022-09-14T17:29:57.925Z,24.1
2022-09-14T17:32:14.994Z,24.1
2022-09-14T17:34:29.117Z,25.1
2022-09-14T17:36:45.207Z,24.5
2022-09-14T17:39:00.993Z,24.2
2022-09-14T17:41:16.507Z,24.9
2022-09-14T17:43:32.131Z,25
2022-09-14T17:45:47.252Z,24.7
2022-09-14T17:48:03.410Z,24.8
2022-09-14T17:50:19.109Z,24.7
2022-09-14T17:52:34.830Z,24.9
2022-09-14T17:54:50.070Z,24.9
2022-09-14T17:57:05.645Z,23.8
2022-09-14T17:59:21.338Z,24.3
2022-09-14T18:01:36.877Z,25.3
2022-09-14T18:03:53.119Z,24.7
2022-09-14T18:06:08.931Z,24.7
2022-09-14T18:08:24.571Z,24.6
2022-09-14T18:10:40.496Z,24.7
2022-09-14T18:12:56.134Z,24.8
2022-09-14T18:15:13.281Z,24.4
2022-09-14T18:17:27.142Z,24.5
2022-09-14T18:19:42.391Z,23.8
2022-09-14T18:21:58.704Z,24.8
2022-09-14T18:24:14.235Z,24.3
2022-09-14T18:26:30.178Z,25.2
2022-09-14T18:28:46.077Z,24.4
2022-09-14T18:31:01.942Z,24.7
2022-09-14T18:33:17.272Z,24.5
2022-09-14T18:35:32.488Z,24.5
2022-09-14T18:37:48.037Z,23.8
2022-09-14T18:40:03.794Z,25
2022-09-14T18:42:20.202Z,24.3
2022-09-14T18:44:35.382Z,24.6
2022-09-14T18:46:51.424Z,24.9
2022-09-14T18:49:06.904Z,24.4
2022-09-14T18:51:22.816Z,24.6
2022-09-14T18:53:37.475Z,24.4
2022-09-14T18:55:53.602Z,24.1
2022-09-14T18:58:09.415Z,23.8
2022-09-14T19:00:25.053Z,24.4
2022-09-14T19:02:41.055Z,24.8
2022-09-14T19:04:56.713Z,24.6
2022-09-14T19:07:12.835Z,25
2022-09-14T19:09:28.264Z,24.7
2022-09-14T19:11:44.060Z,24.7
2022-09-14T19:13:59.646Z,24.6
2022-09-14T19:16:15.669Z,24.6
2022-09-14T19:18:31.138Z,24.6
2022-09-14T19:21:06.618Z,24.8
2022-09-14T19:23:20.515Z,24.7
2022-09-14T19:25:36.216Z,24.3
2022-09-14T19:27:52.004Z,24.5
2022-09-14T19:30:07.794Z,25
2022-09-14T19:32:23.718Z,24.9
2022-09-14T19:34:39.160Z,24.3
2022-09-14T19:36:54.819Z,25.3
2022-09-14T19:39:10.443Z,24.1
2022-09-14T19:41:26.378Z,24.5
2022-09-14T19:43:41.979Z,24.6
2022-09-14T19:45:57.719Z,24.8
2022-09-14T19:48:13.449Z,24.2
2022-09-14T19:50:29.168Z,24.9
2022-09-14T19:52:44.851Z,24.5
2022-09-14T19:55:00.155Z,24.2
2022-09-14T19:57:16.170Z,24.3
2022-09-14T19:59:31.507Z,24.4
2022-09-14T20:01:47.339Z,24.1
2022-09-14T20:04:03.183Z,24
2022-09-14T20:06:18.720Z,24.5
2022-09-14T20:08:34.258Z,24.1
2022-09-14T20:10:35.042Z,24
2022-09-14T20:10:50.315Z,24.1
2022-09-14T20:13:06.137Z,24.4
2022-09-14T20:15:22.071Z,24.4
2022-09-14T20:17:37.837Z,24.3
2022-09-14T20:19:52.848Z,24.3
2022-09-14T20:22:12.587Z,24.5
2022-09-14T20:24:39.735Z,24.2
2022-09-14T20:26:54.940Z,24.7
2022-09-14T20:29:10.717Z,24.3
2022-09-14T20:31:26.536Z,24.4
2022-09-14T20:33:42.197Z,24.1
2022-09-14T20:35:58.070Z,24.3
2022-09-14T20:38:13.604Z,24.6
2022-09-14T20:40:29.030Z,24.8
2022-09-14T20:42:44.562Z,23.9
2022-09-14T20:45:00.345Z,23.9
2022-09-14T20:47:14.732Z,24.1
2022-09-14T20:49:30.243Z,24.2
2022-09-14T20:51:46.285Z,23.5
2022-09-14T20:54:02.354Z,24.8
2022-09-14T20:56:18.221Z,24.2
2022-09-14T20:58:34.047Z,25
2022-09-14T21:01:23.150Z,24.4
2022-09-14T21:03:38.560Z,24.2
2022-09-14T21:05:54.717Z,24.3
2022-09-14T21:08:10.644Z,24.4
2022-09-14T21:10:29.312Z,24
2022-09-14T21:12:42.430Z,24.6
2022-09-14T21:14:58.230Z,24.7
2022-09-14T21:17:14.002Z,24.6
2022-09-14T21:19:29.736Z,24.4
2022-09-14T21:21:45.142Z,24.4
2022-09-14T21:24:00.569Z,23.9
2022-09-14T21:26:16.125Z,24.6
2022-09-14T21:28:31.760Z,24.1
2022-09-14T21:30:47.671Z,25
2022-09-14T21:33:03.878Z,24.6
2022-09-14T21:35:19.506Z,24.6
2022-09-14T21:37:35.528Z,24.5
2022-09-14T21:39:51.211Z,24.4
2022-09-14T21:42:07.000Z,24.9
2022-09-14T21:44:22.900Z,24.6
2022-09-14T21:46:38.701Z,24.8
2022-09-14T21:48:54.002Z,24.4
2022-09-14T21:51:08.951Z,24.1
2022-09-14T21:53:24.452Z,24.1
2022-09-14T21:55:40.611Z,24.9
2022-09-14T21:57:56.084Z,24.3
2022-09-14T22:00:11.522Z,24
2022-09-14T22:02:27.688Z,24.2
2022-09-14T22:04:43.829Z,24.6
2022-09-14T22:06:59.041Z,24.3
2022-09-14T22:09:14.729Z,24.3
2022-09-14T22:11:30.105Z,25
2022-09-14T22:13:45.555Z,24.1
2022-09-14T22:16:02.452Z,24.1
2022-09-14T22:18:18.031Z,24.7
2022-09-14T22:20:33.719Z,24.3
2022-09-14T22:22:49.194Z,23.9
2022-09-14T22:25:04.670Z,24.2
2022-09-14T22:27:20.722Z,24.9
2022-09-14T22:29:36.648Z,24.8
2022-09-14T22:31:52.727Z,23.8
2022-09-14T22:34:08.683Z,24.4
2022-09-14T22:36:24.505Z,24.7
2022-09-14T22:38:40.377Z,24.4
2022-09-14T22:40:56.291Z,24.7
2022-09-14T22:43:11.650Z,24.6
2022-09-14T22:45:27.070Z,24.1
2022-09-14T22:47:43.171Z,24.4
2022-09-14T22:49:58.817Z,24.4
2022-09-14T22:52:14.264Z,24
2022-09-14T22:54:29.799Z,24.4
2022-09-14T22:56:45.369Z,24.3
2022-09-14T22:59:01.604Z,24.1
2022-09-14T23:01:17.601Z,24.4
2022-09-14T23:03:33.910Z,24.6
2022-09-14T23:05:49.629Z,23.8
2022-09-14T23:08:05.628Z,24.6
2022-09-14T23:10:21.531Z,24.4
2022-09-14T23:12:22.712Z,24.2
2022-09-14T23:12:37.693Z,23.9
2022-09-14T23:14:53.169Z,24.2
2022-09-14T23:17:08.945Z,24.1
2022-09-14T23:19:25.056Z,23.4
2022-09-14T23:21:41.272Z,24.6
2022-09-14T23:23:57.374Z,24.7
2022-09-14T23:26:13.644Z,24.1
2022-09-14T23:28:29.175Z,24.1
2022-09-14T23:30:44.652Z,24.1
2022-09-14T23:33:01.152Z,23.9
2022-09-14T23:35:17.193Z,24.4
2022-09-14T23:37:33.571Z,24.4
2022-09-14T23:39:49.722Z,24.9
2022-09-14T23:42:06.132Z,24.5
2022-09-14T23:44:21.972Z,24.6
2022-09-14T23:46:38.709Z,24.1
2022-09-14T23:48:54.476Z,23.8
2022-09-14T23:51:10.351Z,24.3
2022-09-14T23:53:26.650Z,24
2022-09-14T23:55:42.582Z,23.7
2022-09-14T23:57:59.465Z,23.6
